createdAt,value
2022-09-13T00:02:55.680Z,99314.40
2022-09-13T00:05:57.934Z,99314.67
2022-09-13T00:09:01.738Z,99314.66
2022-09-13T00:12:04.400Z,99313.07
2022-09-13T00:15:07.105Z,99313.13
2022-09-13T00:18:08.775Z,99315.02
2022-09-13T00:21:16.759Z,99313.60
2022-09-13T00:24:20.215Z,99309.48
2022-09-13T00:27:21.888Z,99307.66
2022-09-13T00:30:26.521Z,99307.34
2022-09-13T00:33:31.199Z,99302.62
2022-09-13T00:36:32.923Z,99297.73
2022-09-13T00:39:37.132Z,99298.70
2022-09-13T00:42:39.033Z,99296.69
2022-09-13T00:45:43.290Z,99297.14
2022-09-13T00:48:46.979Z,99291.18
2022-09-13T00:52:05.348Z,99289.13
2022-09-13T00:55:36.007Z,99290.41
2022-09-13T00:58:47.233Z,99285.09
2022-09-13T01:01:52.404Z,99289.38
2022-09-13T01:04:54.218Z,99290.86
2022-09-13T01:07:56.614Z,99288.48
2022-09-13T01:11:00.286Z,99285.66
2022-09-13T01:14:01.964Z,99286.55
2022-09-13T01:17:04.242Z,99288.55
2022-09-13T01:20:07.928Z,99290.44
2022-09-13T01:23:40.881Z,99291.83
2022-09-13T01:26:54.641Z,99290.59
2022-09-13T01:30:03.298Z,99292.20
2022-09-13T01:33:24.074Z,99288.02
2022-09-13T01:36:54.980Z,99285.36
2022-09-13T01:39:59.371Z,99285.26
2022-09-13T01:43:11.886Z,99285.19
2022-09-13T01:46:27.030Z,99285.19
2022-09-13T01:49:46.181Z,99283.61
2022-09-13T01:53:06.328Z,99281.90
2022-09-13T01:56:16.402Z,99281.84
2022-09-13T01:59:28.409Z,99281.00
2022-09-13T02:02:51.266Z,99279.93
2022-09-13T02:06:00.141Z,99278.25
2022-09-13T02:09:04.793Z,99276.12
2022-09-13T02:12:11.205Z,99275.36
2022-09-13T02:15:18.905Z,99271.95
2022-09-13T02:18:35.470Z,99273.66
2022-09-13T02:21:40.085Z,99270.55
2022-09-13T02:24:45.627Z,99268.86
2022-09-13T02:27:51.571Z,99268.41
2022-09-13T02:30:54.021Z,99265.83
2022-09-13T02:34:00.634Z,99260.42
2022-09-13T02:37:03.318Z,99256.98
2022-09-13T02:40:10.485Z,99257.46
2022-09-13T02:43:16.192Z,99254.55
2022-09-13T02:46:30.085Z,99251.70
2022-09-13T02:49:47.532Z,99247.94
2022-09-13T02:53:07.953Z,99249.21
2022-09-13T02:56:38.657Z,99246.48
2022-09-13T02:59:40.601Z,99245.98
2022-09-13T03:02:43.870Z,99244.80
2022-09-13T03:05:45.602Z,99249.71
2022-09-13T03:08:47.328Z,99240.64
2022-09-13T03:11:51.930Z,99242.26
2022-09-13T03:14:58.234Z,99242.50
2022-09-13T03:18:06.186Z,99240.70
2022-09-13T03:21:28.134Z,99236.08
2022-09-13T03:24:55.603Z,99236.80
2022-09-13T03:28:09.389Z,99231.86
2022-09-13T03:31:21.243Z,99231.03
2022-09-13T03:34:29.455Z,99229.92
2022-09-13T03:37:53.808Z,99227.16
2022-09-13T03:41:34.259Z,99224.32
2022-09-13T03:44:37.226Z,99223.59
2022-09-13T03:47:41.007Z,99221.08
2022-09-13T03:50:43.601Z,99226.03
2022-09-13T03:53:56.503Z,99225.23
2022-09-13T03:57:09.842Z,99226.77
2022-09-13T04:00:13.752Z,99224.14
2022-09-13T04:03:15.804Z,99226.27
2022-09-13T04:06:17.672Z,99223.89
2022-09-13T04:09:19.426Z,99226.85
2022-09-13T04:12:20.949Z,99225.81
2022-09-13T04:15:22.799Z,99225.98
2022-09-13T04:18:24.748Z,99226.75
2022-09-13T04:21:26.458Z,99225.23
2022-09-13T04:24:29.489Z,99222.86
2022-09-13T04:27:31.339Z,99217.85
2022-09-13T04:30:33.078Z,99214.24
2022-09-13T04:33:37.415Z,99210.27
2022-09-13T04:36:39.691Z,99206.70
2022-09-13T04:39:41.483Z,99204.27
2022-09-13T04:42:46.321Z,99202.32
2022-09-13T04:45:48.227Z,99202.55
2022-09-13T04:48:50.991Z,99198.34
2022-09-13T04:51:52.720Z,99199.46
2022-09-13T04:54:54.773Z,99200.52
2022-09-13T04:57:56.581Z,99201.30
2022-09-13T05:01:02.776Z,99198.79
2022-09-13T05:04:06.248Z,99201.14
2022-09-13T05:07:07.877Z,99192.42
2022-09-13T05:10:09.693Z,99192.42
2022-09-13T05:13:11.862Z,99195.69
2022-09-13T05:16:13.563Z,99197.81
2022-09-13T05:19:16.161Z,99199.48
2022-09-13T05:22:18.138Z,99201.04
2022-09-13T05:25:22.963Z,99202.88
2022-09-13T05:28:29.383Z,99199.52
2022-09-13T05:31:36.651Z,99202.18
2022-09-13T05:34:38.482Z,99203.02
2022-09-13T05:37:40.257Z,99204.67
2022-09-13T05:40:42.202Z,99209.17
2022-09-13T05:43:43.974Z,99203.64
2022-09-13T05:46:49.448Z,99202.03
2022-09-13T05:50:09.499Z,99203.70
2022-09-13T05:53:12.471Z,99209.14
2022-09-13T05:56:16.888Z,99207.35
2022-09-13T05:59:18.946Z,99204.40
2022-09-13T06:02:20.904Z,99209.05
2022-09-13T06:05:22.706Z,99209.16
2022-09-13T06:08:29.268Z,99213.23
2022-09-13T06:11:33.774Z,99209.34
2022-09-13T06:14:35.814Z,99209.84
2022-09-13T06:17:37.832Z,99205.46
2022-09-13T06:20:39.826Z,99209.38
2022-09-13T06:23:41.717Z,99211.59
2022-09-13T06:26:43.995Z,99209.09
2022-09-13T06:29:45.874Z,99210.32
2022-09-13T06:32:47.523Z,99206.88
2022-09-13T06:35:52.074Z,99208.02
2022-09-13T06:39:00.804Z,99206.38
2022-09-13T06:42:05.882Z,99204.63
2022-09-13T06:45:08.119Z,99209.25
2022-09-13T06:48:18.678Z,99209.80
2022-09-13T06:51:23.166Z,99205.64
2022-09-13T06:54:25.038Z,99213.17
2022-09-13T06:57:30.531Z,99215.55
2022-09-13T07:00:32.964Z,99215.25
2022-09-13T07:03:34.779Z,99217.16
2022-09-13T07:06:38.498Z,99218.73
2022-09-13T07:09:43.462Z,99219.40
2022-09-13T07:12:45.269Z,99213.83
2022-09-13T07:15:47.209Z,99216.39
2022-09-13T07:18:53.545Z,99206.61
2022-09-13T07:21:56.699Z,99208.27
2022-09-13T07:24:58.689Z,99203.21
2022-09-13T07:28:00.456Z,99203.71
2022-09-13T07:31:33.114Z,99203.77
2022-09-13T07:34:35.372Z,99201.73
2022-09-13T07:37:37.210Z,99198.56
2022-09-13T07:40:39.264Z,99196.20
2022-09-13T07:43:41.873Z,99195.64
2022-09-13T07:46:43.850Z,99188.52
2022-09-13T07:49:46.896Z,99187.64
2022-09-13T07:52:48.592Z,99189.71
2022-09-13T07:55:50.363Z,99190.27
2022-09-13T07:58:55.104Z,99190.64
2022-09-13T08:01:57.402Z,99191.86
2022-09-13T08:04:59.522Z,99190.70
2022-09-13T08:08:01.460Z,99182.44
2022-09-13T08:11:05.304Z,99184.80
2022-09-13T08:14:09.092Z,99183.19
2022-09-13T08:17:11.048Z,99180.83
2022-09-13T08:20:12.806Z,99176.73
2022-09-13T08:23:15.049Z,99175.12
2022-09-13T08:26:17.131Z,99170.34
2022-09-13T08:29:19.013Z,99169.19
2022-09-13T08:32:20.764Z,99167.48
2022-09-13T08:35:22.637Z,99166.23
2022-09-13T08:38:24.602Z,99162.23
2022-09-13T08:41:32.197Z,99160.48
2022-09-13T08:44:37.613Z,99157.28
2022-09-13T08:47:44.780Z,99152.73
2022-09-13T08:50:47.617Z,99149.26
2022-09-13T08:53:50.577Z,99142.36
2022-09-13T08:57:21.330Z,99141.93
2022-09-13T09:00:25.007Z,99139.67
2022-09-13T09:03:43.128Z,99143.50
2022-09-13T09:06:45.276Z,99146.34
2022-09-13T09:09:55.036Z,99146.95
2022-09-13T09:13:04.094Z,99143.78
2022-09-13T09:16:43.089Z,99141.45
2022-09-13T09:19:53.959Z,99142.39
2022-09-13T09:22:56.054Z,99140.47
2022-09-13T09:26:22.228Z,99140.14
2022-09-13T09:29:30.051Z,99136.31
2022-09-13T09:32:54.085Z,99132.33
2022-09-13T09:36:01.238Z,99124.85
2022-09-13T09:39:05.354Z,99118.93
2022-09-13T09:42:19.769Z,99118.39
2022-09-13T09:45:24.157Z,99109.50
2022-09-13T09:48:29.876Z,99110.11
2022-09-13T09:51:32.495Z,99112.61
2022-09-13T09:54:35.304Z,99113.97
2022-09-13T09:57:54.268Z,99110.73
2022-09-13T10:00:58.155Z,99108.67
2022-09-13T10:04:20.981Z,99106.88
2022-09-13T10:07:34.553Z,99109.39
2022-09-13T10:10:42.606Z,99106.70
2022-09-13T10:14:02.598Z,99094.88
2022-09-13T10:17:29.971Z,99093.77
2022-09-13T10:20:34.956Z,99089.29
2022-09-13T10:23:37.342Z,99087.89
2022-09-13T10:26:39.634Z,99087.98
2022-09-13T10:29:47.982Z,99082.37
2022-09-13T10:32:56.115Z,99080.20
2022-09-13T10:36:04.493Z,99079.41
2022-09-13T10:39:18.530Z,99072.98
2022-09-13T10:42:23.796Z,99074.66
2022-09-13T10:45:27.877Z,99076.31
2022-09-13T10:48:31.412Z,99070.67
2022-09-13T10:51:36.968Z,99068.34
2022-09-13T10:54:38.624Z,99067.85
2022-09-13T10:57:40.481Z,99068.10
2022-09-13T11:01:16.197Z,99066.50
2022-09-13T11:04:36.981Z,99064.92
2022-09-13T11:08:11.365Z,99060.78
2022-09-13T11:11:37.567Z,99061.52
2022-09-13T11:14:54.892Z,99053.98
2022-09-13T11:18:09.601Z,99051.55
2022-09-13T11:21:46.734Z,99050.84
2022-09-13T11:25:27.995Z,99044.73
2022-09-13T11:29:20.019Z,99033.95
2022-09-13T11:32:55.896Z,99031.90
2022-09-13T11:36:25.119Z,99024.29
2022-09-13T11:40:09.539Z,99021.98
2022-09-13T11:44:05.906Z,99018.54
2022-09-13T11:47:11.691Z,99018.30
2022-09-13T11:50:34.432Z,99014.02
2022-09-13T11:54:02.060Z,99010.36
2022-09-13T11:57:33.299Z,99008.49
2022-09-13T12:00:40.681Z,99002.71
2022-09-13T12:03:58.212Z,98996.55
2022-09-13T12:07:03.602Z,98992.86
2022-09-13T12:10:14.162Z,98985.55
2022-09-13T12:13:28.137Z,98978.27
2022-09-13T12:16:36.075Z,98975.16
2022-09-13T12:19:47.090Z,98966.56
2022-09-13T12:22:49.705Z,98960.79
2022-09-13T12:26:07.869Z,98954.02
2022-09-13T12:29:40.965Z,98952.63
2022-09-13T12:32:47.533Z,98946.72
2022-09-13T12:36:08.342Z,98940.89
2022-09-13T12:39:41.229Z,98929.50
2022-09-13T12:43:02.743Z,98924.37
2022-09-13T12:46:33.896Z,98926.45
2022-09-13T12:50:43.034Z,98916.38
2022-09-13T12:53:47.616Z,98904.50
2022-09-13T12:56:58.368Z,98899.84
2022-09-13T13:00:14.233Z,98898.12
2022-09-13T13:03:19.301Z,98893.52
2022-09-13T13:06:26.241Z,98894.29
2022-09-13T13:09:42.449Z,98897.52
2022-09-13T13:12:44.817Z,98899.58
2022-09-13T13:15:50.066Z,98900.84
2022-09-13T13:18:59.659Z,98896.02
2022-09-13T13:22:39.197Z,98889.13
2022-09-13T13:26:13.596Z,98884.80
2022-09-13T13:29:30.025Z,98887.25
2022-09-13T13:32:32.332Z,98875.54
2022-09-13T13:35:34.372Z,98867.62
2022-09-13T13:38:48.194Z,98873.46
2022-09-13T13:42:03.902Z,98874.05
2022-09-13T13:45:20.118Z,98870.19
2022-09-13T13:48:38.215Z,98867.89
2022-09-13T13:51:39.973Z,98872.36
2022-09-13T13:54:41.636Z,98867.54
2022-09-13T13:58:00.160Z,98862.79
2022-09-13T14:01:02.580Z,98852.27
2022-09-13T14:04:30.283Z,98847.08
2022-09-13T14:07:55.194Z,98839.95
2022-09-13T14:11:18.862Z,98832.69
2022-09-13T14:14:29.830Z,98830.92
2022-09-13T14:18:03.938Z,98832.77
2022-09-13T14:21:26.768Z,98829.12
2022-09-13T14:24:28.437Z,98833.02
2022-09-13T14:27:34.524Z,98829.63
2022-09-13T14:30:38.433Z,98824.48
2022-09-13T14:33:40.542Z,98824.21
2022-09-13T14:36:52.575Z,98823.10
2022-09-13T14:40:00.566Z,98821.46
2022-09-13T14:43:15.453Z,98822.30
2022-09-13T14:46:27.977Z,98811.21
2022-09-13T14:49:33.920Z,98811.80
2022-09-13T14:52:38.534Z,98809.80
2022-09-13T14:55:47.771Z,98809.04
2022-09-13T14:58:53.310Z,98804.30
2022-09-13T15:01:58.541Z,98799.70
2022-09-13T15:05:06.359Z,98795.11
2022-09-13T15:08:34.904Z,98798.64
2022-09-13T15:11:40.275Z,98795.05
2022-09-13T15:14:43.607Z,98794.18
2022-09-13T15:17:55.574Z,98793.57
2022-09-13T15:20:59.649Z,98795.64
2022-09-13T15:24:01.653Z,98791.14
2022-09-13T15:27:20.931Z,98788.01
2022-09-13T15:30:24.592Z,98784.33
2022-09-13T15:33:31.946Z,98787.90
2022-09-13T15:36:34.134Z,98789.44
2022-09-13T15:39:51.773Z,98786.05
2022-09-13T15:42:53.622Z,98786.96
2022-09-13T15:45:57.290Z,98782.21
2022-09-13T15:49:02.090Z,98786.02
2022-09-13T15:52:05.767Z,98786.02
2022-09-13T15:55:11.938Z,98788.17
2022-09-13T15:58:13.738Z,98784.70
2022-09-13T16:01:17.025Z,98784.79
2022-09-13T16:04:19.415Z,98788.70
2022-09-13T16:07:21.707Z,98789.48
2022-09-13T16:10:23.754Z,98792.74
2022-09-13T16:13:25.420Z,98792.92
2022-09-13T16:16:27.157Z,98791.83
2022-09-13T16:19:29.675Z,98788.09
2022-09-13T16:22:31.636Z,98785.42
2022-09-13T16:25:34.983Z,98788.57
2022-09-13T16:28:37.016Z,98784.78
2022-09-13T16:31:39.120Z,98786.41
2022-09-13T16:34:41.062Z,98791.66
2022-09-13T16:37:43.090Z,98794.89
2022-09-13T16:40:45.717Z,98796.59
2022-09-13T16:43:47.831Z,98793.85
2022-09-13T16:46:50.016Z,98793.64
2022-09-13T16:49:52.656Z,98783.08
2022-09-13T16:52:54.699Z,98784.09
2022-09-13T16:56:06.931Z,98789.90
2022-09-13T16:59:09.799Z,98786.45
2022-09-13T17:02:12.692Z,98789.77
2022-09-13T17:05:15.185Z,98787.27
2022-09-13T17:08:16.928Z,98790.11
2022-09-13T17:11:21.406Z,98793.23
2022-09-13T17:14:23.378Z,98787.08
2022-09-13T17:17:25.920Z,98788.11
2022-09-13T17:20:27.702Z,98781.41
2022-09-13T17:23:29.571Z,98779.79
2022-09-13T17:26:31.594Z,98781.77
2022-09-13T17:29:34.899Z,98784.04
2022-09-13T17:32:36.775Z,98782.91
2022-09-13T17:35:38.985Z,98782.11
2022-09-13T17:38:41.909Z,98780.66
2022-09-13T17:41:43.840Z,98776.36
2022-09-13T17:44:45.536Z,98773.62
2022-09-13T17:47:48.043Z,98774.63
2022-09-13T17:50:50.315Z,98766.59
2022-09-13T17:53:58.804Z,98765.63
2022-09-13T17:57:00.592Z,98760.84
2022-09-13T18:00:05.505Z,98765.67
2022-09-13T18:03:07.376Z,98761.30
2022-09-13T18:06:10.424Z,98761.55
2022-09-13T18:09:14.244Z,98761.55
2022-09-13T18:12:15.906Z,98762.59
2022-09-13T18:15:17.630Z,98760.48
2022-09-13T18:18:19.673Z,98758.63
2022-09-13T18:21:23.960Z,98754.19
2022-09-13T18:24:25.859Z,98754.86
2022-09-13T18:27:27.952Z,98749.41
2022-09-13T18:30:29.933Z,98744.86
2022-09-13T18:33:32.376Z,98740.98
2022-09-13T18:36:35.282Z,98742.98
2022-09-13T18:39:37.104Z,98744.98
2022-09-13T18:42:40.926Z,98749.46
2022-09-13T18:45:42.895Z,98755.83
2022-09-13T18:48:47.116Z,98757.52
2022-09-13T18:51:49.765Z,98756.27
2022-09-13T18:54:51.474Z,98754.41
2022-09-13T18:57:53.145Z,98749.77
2022-09-13T19:01:03.238Z,98747.23
2022-09-13T19:04:13.727Z,98750.44
2022-09-13T19:07:15.315Z,98746.78
2022-09-13T19:10:17.276Z,98745.94
2022-09-13T19:13:19.162Z,98741.15
2022-09-13T19:16:21.564Z,98734.67
2022-09-13T19:19:24.666Z,98733.55
2022-09-13T19:22:26.497Z,98737.29
2022-09-13T19:25:30.305Z,98740.17
2022-09-13T19:28:32.264Z,98733.55
2022-09-13T19:31:36.575Z,98724.85
2022-09-13T19:34:38.391Z,98722.60
2022-09-13T19:37:39.989Z,98717.33
2022-09-13T19:40:41.718Z,98710.25
2022-09-13T19:43:44.600Z,98707.37
2022-09-13T19:46:46.438Z,98705.80
2022-09-13T19:49:50.445Z,98694.11
2022-09-13T19:52:52.121Z,98690.06
2022-09-13T19:55:55.279Z,98690.60
2022-09-13T19:58:58.390Z,98690.02
2022-09-13T20:02:00.153Z,98693.43
2022-09-13T20:05:02.113Z,98693.29
2022-09-13T20:08:04.048Z,98694.42
2022-09-13T20:11:10.861Z,98698.13
2022-09-13T20:14:14.840Z,98699.95
2022-09-13T20:17:16.621Z,98699.88
2022-09-13T20:20:18.889Z,98701.27
2022-09-13T20:23:20.636Z,98695.51
2022-09-13T20:26:26.975Z,98696.77
2022-09-13T20:29:28.834Z,98697.80
2022-09-13T20:32:31.419Z,98698.30
2022-09-13T20:35:37.058Z,98695.16
2022-09-13T20:38:39.430Z,98696.76
2022-09-13T20:41:41.872Z,98692.92
2022-09-13T20:44:45.999Z,98692.16
2022-09-13T20:47:48.125Z,98692.05
2022-09-13T20:51:01.153Z,98696.52
2022-09-13T20:54:03.073Z,98696.05
2022-09-13T20:57:04.977Z,98692.70
2022-09-13T21:00:08.718Z,98696.46
2022-09-13T21:03:11.245Z,98687.70
2022-09-13T21:06:13.429Z,98684.23
2022-09-13T21:09:15.474Z,98689.72
2022-09-13T21:12:17.629Z,98687.64
2022-09-13T21:15:20.058Z,98689.16
2022-09-13T21:18:21.701Z,98685.61
2022-09-13T21:21:26.087Z,98684.27
2022-09-13T21:24:27.838Z,98688.15
2022-09-13T21:27:29.873Z,98689.54
2022-09-13T21:30:31.568Z,98688.20
2022-09-13T21:33:34.041Z,98681.77
2022-09-13T21:36:36.181Z,98679.41
2022-09-13T21:39:37.830Z,98682.15
2022-09-13T21:42:39.550Z,98677.53
2022-09-13T21:45:41.329Z,98675.38
2022-09-13T21:48:47.316Z,98673.41
2022-09-13T21:51:49.997Z,98672.46
2022-09-13T21:54:52.691Z,98675.96
2022-09-13T21:57:54.520Z,98674.64
2022-09-13T22:01:04.868Z,98676.15
2022-09-13T22:04:07.591Z,98675.95
2022-09-13T22:07:09.273Z,98674.72
2022-09-13T22:10:11.205Z,98667.94
2022-09-13T22:13:12.849Z,98668.01
2022-09-13T22:16:26.252Z,98669.52
2022-09-13T22:19:28.127Z,98660.15
2022-09-13T22:22:29.893Z,98655.88
2022-09-13T22:25:32.382Z,98655.88
2022-09-13T22:28:34.869Z,98652.06
2022-09-13T22:31:39.545Z,98652.83
2022-09-13T22:34:41.304Z,98645.86
2022-09-13T22:37:43.338Z,98645.78
2022-09-13T22:40:45.049Z,98639.70
2022-09-13T22:43:47.020Z,98635.61
2022-09-13T22:46:48.762Z,98635.60
2022-09-13T22:49:50.529Z,98630.05
2022-09-13T22:52:52.292Z,98630.02
2022-09-13T22:55:54.129Z,98624.45
2022-09-13T22:58:58.228Z,98626.38
2022-09-13T23:01:59.938Z,98624.60
2022-09-13T23:05:21.934Z,98622.16
2022-09-13T23:08:39.544Z,98624.52
2022-09-13T23:11:41.234Z,98624.02
2022-09-13T23:14:46.154Z,98619.36
2022-09-13T23:17:48.106Z,98617.90
2022-09-13T23:20:56.546Z,98614.23
2022-09-13T23:23:59.893Z,98616.26
2022-09-13T23:27:01.719Z,98618.30
2022-09-13T23:30:03.712Z,98619.27
2022-09-13T23:33:08.311Z,98620.52
2022-09-13T23:36:12.221Z,98624.62
2022-09-13T23:39:17.011Z,98626.98
2022-09-13T23:42:18.954Z,98620.91
2022-09-13T23:45:20.685Z,98625.73
2022-09-13T23:48:23.242Z,98622.87
2022-09-13T23:51:26.660Z,98619.67
2022-09-13T23:54:28.437Z,98616.84
2022-09-13T23:57:30.254Z,98611.64
